Time;durP1;ratioP1;P1;durP2;ratioP2;P2;SDS_P1;SDS_P2;PMS_P1;PMS_P2;Temp;Humidity;BMP_temperature;BMP_pressure;BME280_temperature;BME280_humidity;BME280_pressure;Samples;Min_cycle;Max_cycle;Signal;HPM_P1;HPM_P2
2022/02/27 00:00:14;;;;;;;13.18;3.30;;;9.30;42.70;;;;;;6248818;28;20429;-72
2022/02/27 00:03:15;;;;;;;5.97;3.33;;;9.30;42.70;;;;;;6264271;28;20041;-72
2022/02/27 00:06:16;;;;;;;13.45;4.70;;;9.30;42.60;;;;;;6272784;28;20122;-71
2022/02/27 00:09:17;;;;;;;9.00;4.00;;;9.30;42.80;;;;;;6282533;28;20039;-72
2022/02/27 00:12:18;;;;;;;12.00;3.80;;;9.30;43.20;;;;;;6298067;28;20041;-71
2022/02/27 00:15:20;;;;;;;11.35;4.07;;;9.30;43.40;;;;;;6297998;28;20531;-72
2022/02/27 00:18:22;;;;;;;8.88;3.55;;;9.30;43.60;;;;;;6299640;28;20469;-71
2022/02/27 00:21:23;;;;;;;8.63;3.72;;;9.30;43.90;;;;;;6274215;28;20094;-72
2022/02/27 00:24:24;;;;;;;10.45;4.07;;;9.30;44.20;;;;;;6263789;28;20099;-71
2022/02/27 00:27:25;;;;;;;10.45;4.00;;;9.20;44.20;;;;;;6274018;28;20033;-72
2022/02/27 00:30:26;;;;;;;10.90;4.55;;;9.20;44.40;;;;;;6272532;28;20362;-72
2022/02/27 00:33:27;;;;;;;12.57;3.88;;;9.20;44.40;;;;;;6273773;28;20402;-72
2022/02/27 00:36:28;;;;;;;10.40;4.07;;;9.20;44.30;;;;;;6273751;28;20051;-71
2022/02/27 00:39:30;;;;;;;14.18;3.70;;;9.10;44.10;;;;;;6285920;28;20047;-72
2022/02/27 00:42:32;;;;;;;8.07;3.55;;;9.10;44.80;;;;;;6298622;28;20419;-71
2022/02/27 00:45:34;;;;;;;16.98;3.70;;;9.10;44.30;;;;;;6299592;28;20047;-71
2022/02/27 00:48:36;;;;;;;12.63;4.00;;;9.00;44.40;;;;;;6298193;28;20530;-72
2022/02/27 00:51:37;;;;;;;11.85;4.13;;;9.00;44.50;;;;;;6298460;28;20037;-72
2022/02/27 00:54:38;;;;;;;12.25;4.68;;;9.00;44.50;;;;;;6277115;28;20067;-72
2022/02/27 00:57:39;;;;;;;11.35;3.92;;;8.90;44.80;;;;;;6273563;28;20033;-71
2022/02/27 01:00:42;;;;;;;8.98;3.92;;;8.90;45.10;;;;;;6274432;28;20036;-71
2022/02/27 01:03:42;;;;;;;6.85;3.25;;;8.90;45.20;;;;;;6273079;28;20037;-72
2022/02/27 01:06:43;;;;;;;8.18;3.42;;;8.80;45.20;;;;;;6273118;28;20045;-72
2022/02/27 01:09:45;;;;;;;8.80;4.13;;;8.70;45.10;;;;;;6277287;28;20033;-71
2022/02/27 01:12:45;;;;;;;13.23;4.05;;;8.70;45.10;;;;;;6281120;28;20037;-72
2022/02/27 01:15:47;;;;;;;7.85;3.90;;;8.70;45.30;;;;;;6297359;28;20056;-72
2022/02/27 01:18:48;;;;;;;6.63;2.83;;;8.60;45.40;;;;;;6298062;28;20039;-72
2022/02/27 01:21:49;;;;;;;8.05;2.88;;;8.60;45.50;;;;;;6297629;28;20036;-72
2022/02/27 01:24:50;;;;;;;11.20;3.75;;;8.50;45.50;;;;;;6276346;28;20481;-72
2022/02/27 01:27:51;;;;;;;10.40;3.22;;;8.50;45.50;;;;;;6247509;28;20034;-71
2022/02/27 01:30:54;;;;;;;6.80;2.85;;;8.40;45.60;;;;;;6248004;28;20099;-71
2022/02/27 01:33:55;;;;;;;10.63;3.33;;;8.40;45.60;;;;;;6248068;28;20052;-71
2022/02/27 01:36:56;;;;;;;10.43;3.20;;;8.40;45.60;;;;;;6239651;28;20032;-71
2022/02/27 01:39:57;;;;;;;7.13;3.60;;;8.40;45.50;;;;;;6288141;28;20032;-71
2022/02/27 01:42:59;;;;;;;13.77;3.63;;;8.40;45.60;;;;;;6298491;28;20043;-71
2022/02/27 01:45:59;;;;;;;9.15;3.80;;;8.40;45.60;;;;;;6297065;28;20441;-71
2022/02/27 01:49:01;;;;;;;7.90;3.58;;;8.40;45.60;;;;;;6298439;28;20047;-71
2022/02/27 01:52:03;;;;;;;7.93;3.47;;;8.40;45.80;;;;;;6297454;28;20032;-72
2022/02/27 01:55:06;;;;;;;5.90;3.33;;;8.40;45.70;;;;;;6273107;28;20529;-71
2022/02/27 01:58:07;;;;;;;9.65;4.15;;;8.40;45.80;;;;;;6273410;28;20040;-71
2022/02/27 02:01:08;;;;;;;11.40;3.63;;;8.40;45.80;;;;;;6272971;28;20041;-71
2022/02/27 02:04:09;;;;;;;10.98;3.97;;;8.40;45.80;;;;;;6246117;28;20038;-71
2022/02/27 02:07:11;;;;;;;7.25;3.60;;;8.40;45.90;;;;;;6246071;28;20047;-71
2022/02/27 02:10:12;;;;;;;11.15;4.07;;;8.40;45.90;;;;;;6280064;28;20031;-71
2022/02/27 02:13:16;;;;;;;5.60;3.03;;;8.30;46.10;;;;;;6280880;28;20036;-71
2022/02/27 02:16:21;;;;;;;14.60;3.78;;;8.30;46.50;;;;;;6272531;28;20441;-71
2022/02/27 02:19:25;;;;;;;10.35;3.80;;;8.20;46.70;;;;;;6296793;28;20043;-71
2022/02/27 02:22:29;;;;;;;8.27;3.08;;;8.20;47.00;;;;;;6274815;28;20461;-71
2022/02/27 02:25:31;;;;;;;9.45;3.38;;;8.10;47.20;;;;;;6271293;28;20033;-71
2022/02/27 02:28:32;;;;;;;10.68;3.53;;;8.10;47.40;;;;;;6276518;28;20102;-70
2022/02/27 02:31:34;;;;;;;9.00;3.45;;;8.10;47.70;;;;;;6252322;28;20048;-71
2022/02/27 02:34:35;;;;;;;7.95;3.60;;;8.00;47.80;;;;;;6243819;28;20339;-70
2022/02/27 02:37:36;;;;;;;12.15;3.25;;;8.00;48.00;;;;;;6260219;28;20458;-70
2022/02/27 02:40:37;;;;;;;8.00;3.22;;;7.90;48.00;;;;;;6277046;28;20040;-70
2022/02/27 02:43:38;;;;;;;6.47;3.08;;;7.90;48.00;;;;;;6276587;28;20037;-70
2022/02/27 02:46:40;;;;;;;6.90;2.28;;;7.90;48.00;;;;;;6276587;28;20099;-70
2022/02/27 02:49:41;;;;;;;8.15;2.70;;;7.90;47.60;;;;;;6259422;28;20518;-70
2022/02/27 02:52:42;;;;;;;4.63;2.60;;;7.90;47.30;;;;;;6275414;28;20097;-70
2022/02/27 02:55:43;;;;;;;5.68;2.50;;;7.90;46.80;;;;;;6276103;28;20044;-72
2022/02/27 02:58:44;;;;;;;7.05;2.47;;;7.90;47.10;;;;;;6276014;28;20086;-72
2022/02/27 03:01:45;;;;;;;6.82;2.75;;;7.90;47.10;;;;;;6277337;28;20099;-71
2022/02/27 03:04:46;;;;;;;10.02;3.28;;;7.90;47.00;;;;;;6277117;28;20052;-71
2022/02/27 03:07:47;;;;;;;6.47;3.33;;;7.90;47.10;;;;;;6276999;28;20428;-71
2022/02/27 03:10:48;;;;;;;11.07;3.25;;;7.90;47.40;;;;;;6297712;28;20040;-71
2022/02/27 03:13:50;;;;;;;8.88;3.00;;;7.80;47.70;;;;;;6300693;28;20077;-71
2022/02/27 03:16:51;;;;;;;10.07;3.55;;;7.80;48.00;;;;;;6300413;28;20036;-71
2022/02/27 03:19:52;;;;;;;7.93;3.33;;;7.80;48.20;;;;;;6301767;28;20103;-71
2022/02/27 03:22:53;;;;;;;7.10;3.17;;;7.70;48.40;;;;;;6296410;28;20027;-71
2022/02/27 03:25:53;;;;;;;9.68;3.92;;;7.70;48.80;;;;;;6275643;28;20037;-71
2022/02/27 03:28:54;;;;;;;10.68;3.67;;;7.60;48.90;;;;;;6276613;28;20370;-72
2022/02/27 03:31:55;;;;;;;12.18;3.83;;;7.60;49.10;;;;;;6276769;28;20037;-72
2022/02/27 03:34:56;;;;;;;5.28;2.95;;;7.60;49.30;;;;;;6276340;28;20029;-72
2022/02/27 03:37:57;;;;;;;8.60;3.72;;;7.50;49.30;;;;;;6249833;28;20033;-72
2022/02/27 03:40:58;;;;;;;5.05;3.10;;;7.50;49.30;;;;;;6274418;28;20063;-73
2022/02/27 03:43:59;;;;;;;13.57;3.55;;;7.50;49.20;;;;;;6266713;28;20041;-71
2022/02/27 03:46:59;;;;;;;6.00;2.92;;;7.40;49.10;;;;;;6251488;28;20050;-71
2022/02/27 03:50:00;;;;;;;7.07;3.08;;;7.40;49.00;;;;;;6258493;28;20500;-71
2022/02/27 03:53:01;;;;;;;9.90;3.47;;;7.40;49.00;;;;;;6257247;28;20063;-70
2022/02/27 03:56:02;;;;;;;5.40;2.47;;;7.20;48.90;;;;;;6276095;28;20059;-70
2022/02/27 03:59:03;;;;;;;11.90;2.45;;;7.30;49.00;;;;;;6275962;28;20402;-71
2022/02/27 04:02:04;;;;;;;14.98;2.55;;;7.30;48.90;;;;;;6250286;28;20029;-71
2022/02/27 04:05:05;;;;;;;5.90;2.30;;;7.30;48.90;;;;;;6275490;28;20049;-71
2022/02/27 04:08:07;;;;;;;10.80;3.03;;;7.30;48.90;;;;;;6275343;28;20029;-71
2022/02/27 04:11:07;;;;;;;7.85;3.50;;;7.30;48.80;;;;;;6266897;28;20060;-71
2022/02/27 04:14:09;;;;;;;8.00;2.80;;;7.30;48.80;;;;;;6275670;28;20432;-71
2022/02/27 04:17:10;;;;;;;10.30;3.13;;;7.20;48.80;;;;;;6275437;28;20045;-71
2022/02/27 04:20:11;;;;;;;12.23;3.97;;;7.20;48.90;;;;;;6274171;28;20033;-71
2022/02/27 04:23:11;;;;;;;8.63;2.70;;;7.20;48.90;;;;;;6274963;28;20539;-71
2022/02/27 04:26:13;;;;;;;8.70;3.10;;;7.20;48.90;;;;;;6249360;28;20057;-71
2022/02/27 04:29:14;;;;;;;8.90;2.67;;;7.30;48.90;;;;;;6249305;28;20033;-71
2022/02/27 04:32:15;;;;;;;8.43;2.85;;;7.30;48.80;;;;;;6240865;28;20037;-70
2022/02/27 04:35:16;;;;;;;8.38;2.72;;;7.30;48.90;;;;;;6275284;28;20036;-71
2022/02/27 04:38:17;;;;;;;6.32;2.85;;;7.30;48.70;;;;;;6275835;28;20402;-71
2022/02/27 04:41:18;;;;;;;5.90;2.60;;;7.40;48.70;;;;;;6282076;28;20125;-71
2022/02/27 04:44:19;;;;;;;4.55;2.58;;;7.30;48.60;;;;;;6299473;28;20041;-71
2022/02/27 04:47:20;;;;;;;4.50;2.35;;;7.30;48.60;;;;;;6291237;28;20427;-71
2022/02/27 04:50:21;;;;;;;6.82;2.80;;;7.40;48.60;;;;;;6272701;28;20072;-71
2022/02/27 04:53:22;;;;;;;6.97;3.20;;;7.30;48.60;;;;;;6255647;28;20121;-71
2022/02/27 04:56:23;;;;;;;5.45;2.67;;;7.40;48.60;;;;;;6274611;28;20033;-71
2022/02/27 04:59:24;;;;;;;5.97;2.58;;;7.40;48.70;;;;;;6257059;28;20374;-71
2022/02/27 05:02:25;;;;;;;5.57;2.75;;;7.30;48.80;;;;;;6274605;28;20033;-71
2022/02/27 05:05:26;;;;;;;10.05;2.92;;;7.40;49.00;;;;;;6264720;28;20048;-71
2022/02/27 05:08:26;;;;;;;10.98;3.47;;;7.30;49.10;;;;;;6283726;28;20124;-71
2022/02/27 05:11:27;;;;;;;5.63;2.60;;;7.30;49.20;;;;;;6273334;28;20051;-71
2022/02/27 05:14:28;;;;;;;11.50;2.95;;;7.30;49.30;;;;;;6281481;28;20059;-71
2022/02/27 05:17:30;;;;;;;4.13;2.47;;;7.20;49.50;;;;;;6298003;28;20033;-71
2022/02/27 05:20:31;;;;;;;6.72;3.25;;;7.20;49.50;;;;;;6281148;28;20125;-71
2022/02/27 05:23:31;;;;;;;4.50;2.42;;;7.20;49.50;;;;;;6288904;28;20037;-71
2022/02/27 05:26:33;;;;;;;5.55;2.95;;;7.20;49.50;;;;;;6231779;28;20045;-71
2022/02/27 05:29:33;;;;;;;10.27;3.33;;;7.20;49.60;;;;;;6248160;28;20038;-71
2022/02/27 05:32:34;;;;;;;11.65;2.83;;;7.10;49.50;;;;;;6231689;28;20579;-71
2022/02/27 05:35:35;;;;;;;8.20;2.60;;;7.10;49.50;;;;;;6256289;28;20045;-72
2022/02/27 05:38:36;;;;;;;7.53;3.15;;;7.10;49.50;;;;;;6277158;28;20041;-71
2022/02/27 05:41:37;;;;;;;5.15;2.58;;;7.10;50.10;;;;;;6297267;28;20093;-72
2022/02/27 05:44:39;;;;;;;14.30;3.35;;;7.10;49.60;;;;;;6280426;28;20049;-71
2022/02/27 05:47:40;;;;;;;6.30;2.92;;;7.00;49.70;;;;;;6297370;28;20052;-71
2022/02/27 05:50:40;;;;;;;4.78;2.78;;;7.00;50.40;;;;;;6297376;28;20369;-71
2022/02/27 05:53:41;;;;;;;5.35;3.03;;;6.90;49.90;;;;;;6278349;28;20033;-71
2022/02/27 05:56:42;;;;;;;8.15;2.45;;;6.90;50.00;;;;;;6255796;28;20051;-72
2022/02/27 05:59:43;;;;;;;5.28;2.72;;;6.80;50.10;;;;;;6247348;28;20037;-71
2022/02/27 06:02:44;;;;;;;7.53;3.90;;;6.80;50.20;;;;;;6247427;28;20446;-71
2022/02/27 06:05:45;;;;;;;10.82;2.60;;;6.70;50.20;;;;;;6255360;28;20136;-71
2022/02/27 06:08:46;;;;;;;11.65;2.92;;;6.70;50.10;;;;;;6273905;28;20040;-71
2022/02/27 06:11:48;;;;;;;4.72;2.75;;;6.60;50.20;;;;;;6273201;28;20029;-71
2022/02/27 06:14:49;;;;;;;5.28;2.60;;;6.60;50.10;;;;;;6272965;28;20040;-71
2022/02/27 06:17:50;;;;;;;5.88;2.60;;;6.50;50.10;;;;;;6271918;28;20025;-71
2022/02/27 06:20:50;;;;;;;9.93;2.85;;;6.50;50.30;;;;;;6271692;28;20033;-71
2022/02/27 06:23:51;;;;;;;5.82;2.30;;;6.50;50.40;;;;;;6272565;28;20033;-71
2022/02/27 06:26:52;;;;;;;6.80;3.05;;;6.40;50.50;;;;;;6247297;28;20484;-70
2022/02/27 06:29:53;;;;;;;4.88;2.40;;;6.50;50.70;;;;;;6255471;28;20032;-71
2022/02/27 06:32:54;;;;;;;4.20;2.08;;;6.40;50.80;;;;;;6271869;28;20040;-71
2022/02/27 06:35:55;;;;;;;12.35;3.20;;;6.40;50.90;;;;;;6271857;28;20033;-70
2022/02/27 06:38:56;;;;;;;9.93;3.47;;;6.40;50.90;;;;;;6278448;28;20043;-71
2022/02/27 06:41:58;;;;;;;6.60;2.72;;;6.40;50.90;;;;;;6293238;28;20346;-70
2022/02/27 06:44:59;;;;;;;6.28;3.13;;;6.40;50.90;;;;;;6248176;28;20061;-71
2022/02/27 06:48:00;;;;;;;10.57;3.15;;;6.40;50.90;;;;;;6248700;28;20034;-71
2022/02/27 06:51:01;;;;;;;12.20;3.28;;;6.40;51.00;;;;;;6263763;28;20116;-71
2022/02/27 06:54:02;;;;;;;6.75;2.67;;;6.40;51.10;;;;;;6258664;28;20094;-71
2022/02/27 06:57:03;;;;;;;11.40;2.80;;;6.40;51.20;;;;;;6273126;28;20345;-71
2022/02/27 07:00:06;;;;;;;7.32;3.15;;;6.30;51.20;;;;;;6272820;28;20033;-71
2022/02/27 07:03:07;;;;;;;8.15;3.20;;;6.40;51.20;;;;;;6272695;28;20045;-72
2022/02/27 07:06:07;;;;;;;6.63;2.25;;;6.40;51.30;;;;;;6271902;28;20067;-71
2022/02/27 07:09:08;;;;;;;5.53;2.58;;;6.40;51.30;;;;;;6271976;28;20048;-72
2022/02/27 07:12:09;;;;;;;7.45;2.80;;;6.40;51.20;;;;;;6271242;28;20045;-72
2022/02/27 07:15:10;;;;;;;5.78;3.03;;;6.40;51.20;;;;;;6249079;28;20072;-72
2022/02/27 07:18:11;;;;;;;7.80;3.33;;;6.40;51.20;;;;;;6229927;28;20120;-72
2022/02/27 07:21:12;;;;;;;9.18;2.80;;;6.50;51.20;;;;;;6257492;28;20048;-72
2022/02/27 07:24:14;;;;;;;5.75;2.58;;;6.50;51.20;;;;;;6273535;28;20041;-72
2022/02/27 07:27:15;;;;;;;4.57;2.50;;;6.50;51.20;;;;;;6282277;28;20058;-72
2022/02/27 07:30:16;;;;;;;12.80;3.72;;;6.60;51.20;;;;;;6266832;28;20162;-71
2022/02/27 07:33:17;;;;;;;4.80;2.65;;;6.60;51.70;;;;;;6275080;28;20036;-72
2022/02/27 07:36:19;;;;;;;6.93;3.08;;;6.60;51.00;;;;;;6275943;28;20044;-71
2022/02/27 07:39:20;;;;;;;5.10;2.38;;;6.70;51.00;;;;;;6277010;28;20053;-72
2022/02/27 07:42:21;;;;;;;5.38;2.53;;;6.80;51.00;;;;;;6255863;28;20047;-70
2022/02/27 07:45:22;;;;;;;6.15;2.85;;;6.90;50.60;;;;;;6243274;28;20050;-71
2022/02/27 07:48:22;;;;;;;11.75;2.60;;;7.00;50.30;;;;;;6258555;28;20041;-71
2022/02/27 07:51:23;;;;;;;6.47;2.90;;;7.10;50.30;;;;;;6267106;28;20043;-71
2022/02/27 07:54:24;;;;;;;6.50;2.28;;;7.30;50.10;;;;;;6274281;28;20527;-72
2022/02/27 07:57:25;;;;;;;3.83;2.88;;;7.40;49.70;;;;;;6275436;28;20116;-70
2022/02/27 08:00:26;;;;;;;7.80;2.97;;;7.40;49.50;;;;;;6276090;28;20037;-70
2022/02/27 08:03:27;;;;;;;6.28;2.67;;;7.30;49.40;;;;;;6275012;28;20044;-71
2022/02/27 08:06:28;;;;;;;6.05;2.70;;;7.30;49.50;;;;;;6235715;28;20069;-72
2022/02/27 08:09:29;;;;;;;6.90;3.30;;;7.40;49.50;;;;;;6236524;28;20347;-75
2022/02/27 08:12:31;;;;;;;6.72;3.03;;;7.50;49.40;;;;;;6299890;28;20051;-71
2022/02/27 08:15:32;;;;;;;6.53;3.50;;;7.70;49.30;;;;;;6276014;28;20355;-71
2022/02/27 08:18:33;;;;;;;10.70;3.85;;;7.80;49.10;;;;;;6274995;28;20045;-71
2022/02/27 08:21:35;;;;;;;5.97;2.92;;;7.90;48.80;;;;;;6274947;28;20127;-70
2022/02/27 08:24:35;;;;;;;17.15;4.03;;;8.00;48.60;;;;;;6259036;28;20060;-71
2022/02/27 08:27:36;;;;;;;42.58;5.45;;;8.10;48.40;;;;;;6250923;28;20419;-71
2022/02/27 08:30:37;;;;;;;8.65;3.60;;;8.10;48.30;;;;;;6274558;28;20037;-71
2022/02/27 08:33:38;;;;;;;11.77;4.00;;;8.20;48.30;;;;;;6257512;28;20064;-72
2022/02/27 08:36:40;;;;;;;6.47;2.45;;;8.40;48.00;;;;;;6261697;28;20041;-72
2022/02/27 08:39:42;;;;;;;11.02;3.33;;;8.50;47.60;;;;;;6287301;28;20093;-72
2022/02/27 08:42:42;;;;;;;5.78;2.95;;;8.60;47.20;;;;;;6300041;28;20047;-73
2022/02/27 08:45:43;;;;;;;6.68;3.13;;;8.70;47.30;;;;;;6274117;28;20457;-72
2022/02/27 08:48:44;;;;;;;5.50;2.63;;;8.80;47.10;;;;;;6274280;28;20132;-72
2022/02/27 08:51:46;;;;;;;8.07;2.40;;;8.90;46.60;;;;;;6273705;28;20072;-72
2022/02/27 08:54:48;;;;;;;5.30;2.65;;;8.90;46.50;;;;;;6272171;28;20040;-73
2022/02/27 08:57:49;;;;;;;17.63;2.55;;;9.00;46.30;;;;;;6274057;28;20064;-70
2022/02/27 09:00:50;;;;;;;9.05;2.97;;;9.10;46.10;;;;;;6255303;28;20427;-73
2022/02/27 09:03:51;;;;;;;8.32;2.63;;;9.10;45.90;;;;;;6273338;28;20129;-73
2022/02/27 09:06:52;;;;;;;5.25;2.55;;;9.20;45.80;;;;;;6272730;28;20033;-75
2022/02/27 09:09:53;;;;;;;6.82;2.75;;;9.30;45.80;;;;;;6274418;28;20080;-72
2022/02/27 09:12:54;;;;;;;7.45;2.92;;;9.40;45.50;;;;;;6252006;28;20048;-73
2022/02/27 09:21:05;;;;;;;9.25;4.07;;;9.50;45.10;;;;;;6266549;28;20040;-74
2022/02/27 09:24:07;;;;;;;13.02;3.08;;;9.60;45.00;;;;;;6266284;28;20052;-73
2022/02/27 09:27:08;;;;;;;14.10;3.70;;;9.70;45.00;;;;;;6265286;28;20045;-74
2022/02/27 09:30:09;;;;;;;10.13;3.00;;;9.80;44.80;;;;;;6294425;28;20065;-73
2022/02/27 09:33:11;;;;;;;11.40;3.42;;;9.90;44.50;;;;;;6267406;28;20161;-74
2022/02/27 09:36:12;;;;;;;7.15;2.85;;;9.90;44.40;;;;;;6285053;28;20111;-72
2022/02/27 09:39:13;;;;;;;11.27;3.20;;;9.90;44.20;;;;;;6268618;28;20037;-74
2022/02/27 09:42:14;;;;;;;6.75;2.72;;;9.90;44.20;;;;;;6262564;28;20037;-73
2022/02/27 09:45:15;;;;;;;5.80;2.58;;;9.90;44.10;;;;;;6266821;28;20559;-73
2022/02/27 09:48:18;;;;;;;6.60;2.80;;;10.00;44.20;;;;;;6252746;28;20466;-74
2022/02/27 09:51:20;;;;;;;21.05;7.55;;;10.00;44.10;;;;;;6247543;28;20049;-74
2022/02/27 09:54:22;;;;;;;22.65;9.25;;;10.10;43.70;;;;;;6268671;28;20550;-73
2022/02/27 09:57:23;;;;;;;22.20;7.43;;;10.10;43.70;;;;;;6266006;28;20040;-73
2022/02/27 10:00:24;;;;;;;18.35;4.25;;;10.20;43.50;;;;;;6267134;28;20051;-73
2022/02/27 10:03:27;;;;;;;19.13;7.15;;;10.30;43.40;;;;;;6264219;28;20462;-73
2022/02/27 10:06:28;;;;;;;27.23;9.57;;;10.30;43.10;;;;;;6249954;28;20466;-73
2022/02/27 10:09:29;;;;;;;26.45;10.15;;;10.20;43.10;;;;;;6264734;28;20059;-74
2022/02/27 10:12:30;;;;;;;17.13;6.53;;;10.30;43.10;;;;;;6266768;28;20469;-74
2022/02/27 10:15:31;;;;;;;9.32;3.88;;;10.30;43.00;;;;;;6269165;28;20064;-74
2022/02/27 10:18:48;;;;;;;7.88;2.95;;;10.40;43.00;;;;;;6251678;28;20048;-74
2022/02/27 10:21:49;;;;;;;8.25;3.38;;;10.50;42.80;;;;;;6269055;28;20033;-73
2022/02/27 10:24:50;;;;;;;9.65;3.38;;;10.60;42.70;;;;;;6268157;28;20102;-74
2022/02/27 10:28:20;;;;;;;13.00;2.75;;;10.70;42.40;;;;;;6264689;28;20030;-74
2022/02/27 10:31:27;;;;;;;13.48;4.60;;;10.80;42.30;;;;;;6266374;28;20029;-74
2022/02/27 10:34:28;;;;;;;8.18;4.32;;;11.00;41.90;;;;;;6266051;28;20033;-74
2022/02/27 10:37:29;;;;;;;12.10;3.33;;;11.40;41.10;;;;;;6267020;28;20033;-74
2022/02/27 10:40:51;;;;;;;8.73;4.25;;;11.80;40.40;;;;;;6274338;28;20040;-74
2022/02/27 10:43:53;;;;;;;10.55;3.10;;;12.20;39.00;;;;;;6239145;28;20042;-74
2022/02/27 10:47:14;;;;;;;8.55;2.78;;;12.60;38.20;;;;;;6269403;28;20041;-73
2022/02/27 10:50:19;;;;;;;4.78;2.35;;;12.80;38.00;;;;;;6259615;28;20037;-73
2022/02/27 10:53:33;;;;;;;9.60;3.20;;;13.00;37.00;;;;;;6271006;28;20033;-74
2022/02/27 10:56:34;;;;;;;5.03;2.92;;;13.20;36.50;;;;;;6269631;28;20039;-73
2022/02/27 10:59:38;;;;;;;5.90;2.80;;;13.30;35.90;;;;;;6271341;28;20037;-74
2022/02/27 11:02:42;;;;;;;17.17;5.00;;;13.30;35.40;;;;;;6267648;28;20094;-74
2022/02/27 11:05:43;;;;;;;26.63;10.13;;;13.50;35.80;;;;;;6271182;28;20124;-75
2022/02/27 11:08:44;;;;;;;6.07;2.70;;;13.70;35.80;;;;;;6275672;28;20131;-74
2022/02/27 11:11:45;;;;;;;3.88;2.10;;;14.00;35.10;;;;;;6245371;28;20687;-75
2022/02/27 11:14:47;;;;;;;10.55;4.07;;;14.20;34.60;;;;;;6269987;28;20044;-74
2022/02/27 11:17:49;;;;;;;15.10;6.18;;;14.40;34.10;;;;;;6247262;28;20094;-75
2022/02/27 11:20:50;;;;;;;46.33;18.15;;;14.60;33.50;;;;;;6264857;28;20454;-75
2022/02/27 11:23:52;;;;;;;30.13;8.63;;;14.90;33.20;;;;;;6271072;28;20029;-75
2022/02/27 11:26:53;;;;;;;14.88;5.53;;;15.10;32.90;;;;;;6270965;28;20473;-74
2022/02/27 11:29:58;;;;;;;6.18;2.50;;;15.30;31.80;;;;;;6269593;28;20164;-73
2022/02/27 11:33:05;;;;;;;4.40;2.67;;;15.50;31.60;;;;;;6267308;28;20052;-73
2022/02/27 11:36:20;;;;;;;6.88;2.42;;;15.60;31.10;;;;;;6253129;28;20148;-74
2022/02/27 11:42:51;;;;;;;13.30;3.55;;;16.30;29.70;;;;;;6269301;28;20048;-74
2022/02/27 11:45:56;;;;;;;8.80;4.60;;;16.60;29.50;;;;;;6271187;28;20041;-74
2022/02/27 11:49:18;;;;;;;7.10;2.95;;;17.10;29.10;;;;;;6250425;28;20091;-73
2022/02/27 11:52:20;;;;;;;6.15;2.53;;;17.40;28.60;;;;;;6246491;28;20043;-72
2022/02/27 11:55:42;;;;;;;5.68;2.00;;;17.80;27.90;;;;;;6249171;28;20048;-73
2022/02/27 11:58:43;;;;;;;5.35;2.40;;;18.10;27.30;;;;;;6248559;28;20021;-72
2022/02/27 12:01:47;;;;;;;3.30;1.80;;;18.20;27.10;;;;;;6222577;28;20042;-72
2022/02/27 12:04:50;;;;;;;6.53;3.22;;;18.30;26.90;;;;;;6241903;28;20065;-73
2022/02/27 12:08:00;;;;;;;7.68;3.25;;;18.50;26.90;;;;;;6248768;28;20037;-72
2022/02/27 12:11:00;;;;;;;10.13;3.55;;;19.00;26.70;;;;;;6284667;28;20127;-71
2022/02/27 12:14:12;;;;;;;19.15;6.38;;;19.60;25.90;;;;;;6273276;28;24558;-73
2022/02/27 12:17:50;;;;;;;9.93;3.45;;;20.10;25.20;;;;;;6268757;28;20036;-73
2022/02/27 12:20:54;;;;;;;5.15;2.53;;;20.50;24.70;;;;;;6267731;28;20416;-72
2022/02/27 12:24:24;;;;;;;7.05;2.90;;;21.00;24.40;;;;;;6272189;28;20099;-72
2022/02/27 12:27:40;;;;;;;4.70;2.38;;;21.40;24.20;;;;;;6264415;28;20462;-72
2022/02/27 12:30:53;;;;;;;7.78;3.50;;;21.80;23.60;;;;;;6253523;28;20056;-74
2022/02/27 12:33:55;;;;;;;17.95;8.70;;;22.00;23.20;;;;;;6253173;28;20106;-70
2022/02/27 12:36:57;;;;;;;11.90;4.05;;;21.90;23.80;;;;;;6265507;28;20029;-70
2022/02/27 12:39:59;;;;;;;6.63;3.25;;;21.80;24.50;;;;;;6271243;28;20048;-70
2022/02/27 12:43:05;;;;;;;6.25;3.63;;;21.80;25.30;;;;;;6268384;28;20061;-70
2022/02/27 12:46:06;;;;;;;12.50;5.90;;;22.10;25.50;;;;;;6265898;28;20370;-70
2022/02/27 12:52:27;;;;;;;4.60;2.70;;;22.20;24.70;;;;;;6278863;28;20032;-70
2022/02/27 12:55:30;;;;;;;5.50;3.00;;;22.30;24.70;;;;;;6276861;28;20033;-69
2022/02/27 12:58:40;;;;;;;4.70;1.90;;;22.10;24.50;;;;;;6271625;28;20033;-70
2022/02/27 13:01:41;;;;;;;8.35;2.45;;;21.60;25.00;;;;;;6272491;28;20067;-70
2022/02/27 13:04:43;;;;;;;9.80;3.20;;;20.80;26.20;;;;;;6271784;28;20055;-70
2022/02/27 13:07:44;;;;;;;4.00;2.15;;;20.10;26.80;;;;;;6271584;28;20038;-70
2022/02/27 13:10:47;;;;;;;12.85;4.82;;;19.50;27.40;;;;;;6270897;28;20047;-70
2022/02/27 13:13:48;;;;;;;12.65;4.97;;;18.90;27.60;;;;;;6247075;28;20039;-70
2022/02/27 13:16:54;;;;;;;7.93;4.20;;;18.30;28.10;;;;;;6264797;28;20037;-70
2022/02/27 13:19:57;;;;;;;5.90;2.50;;;17.80;28.70;;;;;;6270599;28;20115;-70
2022/02/27 13:22:57;;;;;;;6.63;2.15;;;17.40;29.00;;;;;;6270669;28;20370;-70
2022/02/27 13:26:03;;;;;;;4.80;2.10;;;17.00;29.90;;;;;;6270139;28;20131;-70
2022/02/27 13:29:04;;;;;;;7.07;1.98;;;16.70;30.00;;;;;;6286876;28;20044;-70
2022/02/27 13:32:05;;;;;;;6.18;1.80;;;16.50;30.50;;;;;;6271509;28;20126;-70
2022/02/27 13:35:18;;;;;;;2.80;1.73;;;16.30;31.10;;;;;;6267715;28;20037;-70
2022/02/27 13:38:23;;;;;;;9.32;2.15;;;16.20;31.60;;;;;;6270837;28;20373;-71
2022/02/27 13:41:36;;;;;;;3.78;1.75;;;16.10;31.90;;;;;;6289876;28;20043;-70
2022/02/27 13:44:44;;;;;;;7.18;2.30;;;16.00;31.40;;;;;;6251089;28;20044;-70
2022/02/27 13:47:48;;;;;;;4.53;1.98;;;15.90;31.90;;;;;;6266935;28;20033;-70
2022/02/27 13:50:49;;;;;;;4.55;2.30;;;15.80;32.50;;;;;;6269399;28;20210;-70
2022/02/27 13:53:50;;;;;;;3.97;1.80;;;15.80;32.70;;;;;;6244264;28;20367;-70
2022/02/27 13:57:02;;;;;;;3.13;1.98;;;15.70;33.50;;;;;;6253186;28;20122;-70
2022/02/27 14:00:14;;;;;;;5.40;1.98;;;15.80;33.10;;;;;;6263819;28;20163;-70
2022/02/27 14:03:15;;;;;;;7.40;2.13;;;15.70;33.20;;;;;;6266611;28;20033;-71
2022/02/27 14:06:18;;;;;;;4.25;1.58;;;15.70;33.30;;;;;;6262942;28;20826;-70
2022/02/27 14:09:19;;;;;;;4.97;1.80;;;15.70;33.30;;;;;;6269606;28;20132;-70
2022/02/27 14:12:20;;;;;;;5.72;2.03;;;15.70;33.30;;;;;;6269257;28;20045;-70
2022/02/27 14:15:30;;;;;;;2.85;1.85;;;15.70;33.30;;;;;;6269178;28;20037;-71
2022/02/27 14:18:32;;;;;;;3.97;2.00;;;15.70;33.30;;;;;;6268267;28;20481;-71
2022/02/27 14:21:40;;;;;;;6.40;1.67;;;15.70;33.20;;;;;;6267832;28;20037;-70
2022/02/27 14:24:46;;;;;;;3.58;1.85;;;15.70;33.80;;;;;;6273399;28;20041;-71
2022/02/27 14:27:47;;;;;;;3.47;1.67;;;15.70;33.70;;;;;;6272853;28;20034;-71
2022/02/27 14:30:49;;;;;;;6.22;2.47;;;15.70;33.70;;;;;;6274724;28;20466;-69
2022/02/27 14:33:50;;;;;;;3.05;2.08;;;15.70;33.90;;;;;;6256971;28;20073;-71
2022/02/27 14:36:51;;;;;;;3.92;2.10;;;15.70;33.80;;;;;;6275279;28;20480;-70
2022/02/27 14:40:10;;;;;;;9.00;2.53;;;15.70;33.90;;;;;;6251563;28;20032;-71
2022/02/27 14:43:11;;;;;;;4.05;2.00;;;15.60;34.00;;;;;;6264911;28;20041;-69
2022/02/27 14:46:12;;;;;;;3.95;1.80;;;15.70;34.20;;;;;;6273502;28;20102;-72
2022/02/27 14:49:13;;;;;;;5.20;1.85;;;15.70;34.20;;;;;;6274586;28;20039;-72
2022/02/27 14:52:14;;;;;;;5.03;2.40;;;15.70;33.70;;;;;;6272686;28;20037;-72
2022/02/27 14:55:16;;;;;;;4.22;1.65;;;15.70;33.80;;;;;;6272265;28;20480;-70
2022/02/27 14:58:18;;;;;;;7.90;2.30;;;15.70;33.90;;;;;;6270389;28;20056;-72
2022/02/27 15:01:21;;;;;;;5.55;2.08;;;15.70;33.70;;;;;;6267372;28;20128;-71
2022/02/27 15:04:22;;;;;;;6.57;1.88;;;15.70;33.50;;;;;;6256010;28;20456;-71
2022/02/27 15:07:23;;;;;;;6.97;1.60;;;15.70;33.80;;;;;;6271538;28;20131;-71
2022/02/27 15:10:24;;;;;;;5.45;1.92;;;15.80;33.70;;;;;;6274816;28;20166;-71
2022/02/27 15:13:25;;;;;;;6.53;1.67;;;15.80;33.40;;;;;;6269625;28;20446;-71
2022/02/27 15:16:26;;;;;;;4.93;2.42;;;15.70;33.40;;;;;;6249974;28;20099;-71
2022/02/27 15:19:27;;;;;;;3.38;1.65;;;15.70;33.50;;;;;;6232533;28;20064;-70
2022/02/27 15:22:28;;;;;;;3.63;1.80;;;15.70;33.40;;;;;;6259394;28;20032;-69
2022/02/27 15:25:34;;;;;;;3.28;1.83;;;15.70;33.20;;;;;;6254770;28;20040;-71
2022/02/27 15:28:36;;;;;;;9.65;1.58;;;15.70;33.10;;;;;;6256877;28;20037;-70
2022/02/27 15:31:37;;;;;;;5.60;1.85;;;15.70;33.00;;;;;;6268531;28;20037;-72
2022/02/27 15:34:38;;;;;;;4.38;1.80;;;15.70;32.50;;;;;;6254495;28;20044;-71
2022/02/27 15:37:40;;;;;;;4.15;1.65;;;15.70;32.40;;;;;;6248347;28;20034;-72
2022/02/27 15:40:41;;;;;;;9.68;1.77;;;15.70;32.30;;;;;;6268644;28;20060;-72
2022/02/27 15:43:41;;;;;;;3.40;1.40;;;15.70;31.90;;;;;;6268754;28;20036;-71
2022/02/27 15:46:42;;;;;;;7.95;1.83;;;15.60;31.90;;;;;;6272850;28;20622;-72
2022/02/27 15:49:44;;;;;;;5.82;1.45;;;15.60;32.20;;;;;;6271921;28;20044;-71
2022/02/27 15:52:45;;;;;;;4.97;1.30;;;15.60;32.00;;;;;;6272667;28;20366;-72
2022/02/27 15:55:46;;;;;;;3.25;1.30;;;15.60;32.10;;;;;;6271031;28;20139;-72
2022/02/27 15:58:47;;;;;;;5.95;1.52;;;15.60;32.10;;;;;;6273589;28;20055;-72
2022/02/27 16:01:48;;;;;;;4.00;1.77;;;15.60;32.20;;;;;;6272716;28;20082;-71
2022/02/27 16:04:49;;;;;;;4.57;1.50;;;15.60;32.00;;;;;;6270157;28;20462;-71